Time;durP1;ratioP1;P1;durP2;ratioP2;P2;SDS_P1;SDS_P2;PMS_P1;PMS_P2;Temp;Humidity;BMP_temperature;BMP_pressure;BME280_temperature;BME280_humidity;BME280_pressure;Samples;Min_cycle;Max_cycle;Signal;HPM_P1;HPM_P2
2023/12/27 00:01:00;;;;;;;6.18;4.30;;;;;;;20.61;42.50;101770.94;5032546;28;20049;-60
2023/12/27 00:03:28;;;;;;;7.10;4.60;;;;;;;20.61;42.64;101772.78;5029952;28;20045;-59
2023/12/27 00:05:55;;;;;;;5.32;4.13;;;;;;;20.58;42.62;101783.75;5026608;28;20057;-60
2023/12/27 00:08:22;;;;;;;8.07;4.80;;;;;;;20.56;42.71;101783.03;5027054;28;20042;-59
2023/12/27 00:10:50;;;;;;;5.40;4.18;;;;;;;20.54;42.63;101793.03;5032802;28;20056;-58
2023/12/27 00:13:17;;;;;;;5.38;4.53;;;;;;;20.52;42.80;101792.31;5029849;28;20057;-59
2023/12/27 00:15:45;;;;;;;6.28;4.38;;;;;;;20.51;42.99;101799.53;5026086;28;20068;-59
2023/12/27 00:18:16;;;;;;;5.47;4.35;;;;;;;20.49;43.02;101799.63;5027223;28;20049;-59
2023/12/27 00:20:44;;;;;;;7.40;4.43;;;;;;;20.49;42.88;101801.47;5032451;28;20060;-59
2023/12/27 00:23:11;;;;;;;5.63;4.10;;;;;;;20.48;43.07;101802.41;5029968;28;20384;-59
2023/12/27 00:25:39;;;;;;;5.60;4.25;;;;;;;20.47;42.80;101800.69;5034008;28;20052;-60
2023/12/27 00:28:06;;;;;;;6.57;4.25;;;;;;;20.47;42.79;101811.47;5028427;28;20385;-58
2023/12/27 00:30:34;;;;;;;4.75;3.47;;;;;;;20.46;42.80;101815.13;5031174;28;20419;-58
2023/12/27 00:33:01;;;;;;;4.95;4.13;;;;;;;20.45;42.89;101813.38;5028622;28;20056;-59
2023/12/27 00:35:29;;;;;;;6.10;4.43;;;;;;;20.43;42.96;101826.97;5032810;28;20045;-58
2023/12/27 00:37:57;;;;;;;6.03;4.20;;;;;;;20.43;42.86;101818.03;5027814;28;20049;-58
2023/12/27 00:40:24;;;;;;;6.10;4.40;;;;;;;20.42;42.81;101816.34;5031887;28;20053;-58
2023/12/27 00:42:52;;;;;;;7.57;4.18;;;;;;;20.41;42.90;101823.53;5029695;28;20048;-58
2023/12/27 00:45:19;;;;;;;5.45;3.83;;;;;;;20.40;43.30;101818.25;5025954;28;20045;-58
2023/12/27 00:47:47;;;;;;;5.70;4.15;;;;;;;20.39;43.06;101830.84;5028151;28;20049;-58
2023/12/27 00:50:14;;;;;;;7.32;4.35;;;;;;;20.38;42.90;101833.66;5032130;28;20503;-58
2023/12/27 00:52:42;;;;;;;6.18;3.95;;;;;;;20.38;42.92;101833.66;5028698;28;20049;-58
2023/12/27 00:55:09;;;;;;;5.88;3.90;;;;;;;20.36;42.94;101830.22;5025991;28;20049;-58
2023/12/27 00:57:38;;;;;;;6.13;4.25;;;;;;;20.38;42.91;101839.06;5028148;28;20117;-59
2023/12/27 01:00:06;;;;;;;6.00;3.85;;;;;;;20.36;42.95;101835.59;5031614;28;20052;-59
2023/12/27 01:02:35;;;;;;;6.55;4.30;;;;;;;20.36;43.30;101840.97;5030305;28;20053;-59
2023/12/27 01:05:02;;;;;;;5.32;4.15;;;;;;;20.35;43.08;101837.44;5026199;28;20046;-59
2023/12/27 01:07:30;;;;;;;7.07;4.07;;;;;;;20.36;43.09;101846.34;5027966;28;20050;-59
2023/12/27 01:09:57;;;;;;;5.57;3.88;;;;;;;20.34;43.27;101843.78;5031379;28;20044;-59
2023/12/27 01:12:25;;;;;;;5.78;3.78;;;;;;;20.35;43.14;101852.72;5029186;28;20053;-59
2023/12/27 01:14:52;;;;;;;4.93;3.88;;;;;;;20.34;43.25;101849.19;5025232;28;20042;-59
2023/12/27 01:17:19;;;;;;;6.72;3.97;;;;;;;20.33;43.05;101852.81;5028002;28;20052;-60
2023/12/27 01:19:47;;;;;;;6.78;3.97;;;;;;;20.33;43.25;101852.81;5029026;28;20060;-59
2023/12/27 01:22:14;;;;;;;6.25;3.85;;;;;;;20.33;43.23;101855.50;5027636;28;20053;-59
2023/12/27 01:24:41;;;;;;;6.38;4.47;;;;;;;20.33;43.11;101857.34;5026503;28;20058;-59
2023/12/27 01:27:09;;;;;;;6.25;4.00;;;;;;;20.33;43.28;101863.56;5027061;28;20049;-58
2023/12/27 01:29:36;;;;;;;6.80;3.75;;;;;;;20.33;43.20;101862.72;5039161;28;20048;-59
2023/12/27 01:32:04;;;;;;;4.38;3.63;;;;;;;20.32;43.32;101859.16;5033081;28;20042;-58
2023/12/27 01:34:32;;;;;;;4.97;3.67;;;;;;;20.32;43.19;101858.31;5027616;28;20045;-59
2023/12/27 01:37:04;;;;;;;6.47;4.40;;;;;;;20.33;43.29;101868.09;5033077;28;20061;-59
2023/12/27 01:39:31;;;;;;;5.32;3.70;;;;;;;20.33;43.29;101873.47;5033835;28;20055;-59
2023/12/27 01:41:59;;;;;;;4.80;3.80;;;;;;;20.33;43.35;101870.78;5031450;28;20056;-59
2023/12/27 01:44:26;;;;;;;5.32;3.95;;;;;;;20.32;43.33;101872.63;5028808;28;20042;-59
2023/12/27 01:46:54;;;;;;;5.47;3.60;;;;;;;20.33;43.25;101874.31;5032506;28;20045;-59
2023/12/27 01:49:22;;;;;;;5.13;3.53;;;;;;;20.32;43.32;101872.63;5033769;28;20044;-59
2023/12/27 01:51:49;;;;;;;5.45;3.72;;;;;;;20.33;43.33;101877.00;5031392;28;20045;-58
2023/12/27 01:54:17;;;;;;;5.40;3.75;;;;;;;20.33;43.40;101878.84;5027411;28;20542;-58
2023/12/27 01:56:45;;;;;;;5.80;3.63;;;;;;;20.32;43.33;101878.00;5031548;28;20058;-59
2023/12/27 01:59:13;;;;;;;5.07;3.88;;;;;;;20.33;43.46;101884.22;5032045;28;20498;-58
2023/12/27 02:01:40;;;;;;;4.90;3.67;;;;;;;20.33;43.39;101895.84;5029592;28;20061;-59
2023/12/27 02:04:07;;;;;;;5.50;3.97;;;;;;;20.33;43.28;101906.59;5027322;28;20057;-58
2023/12/27 02:06:35;;;;;;;6.10;3.40;;;;;;;20.34;43.38;101904.78;5031394;28;20056;-59
2023/12/27 02:09:04;;;;;;;4.50;3.05;;;;;;;20.33;43.42;101900.38;5034946;28;20053;-59
2023/12/27 02:11:32;;;;;;;5.30;3.10;;;;;;;20.32;43.27;101888.75;5031071;28;20045;-59
2023/12/27 02:13:59;;;;;;;4.50;3.03;;;;;;;20.32;43.29;101886.06;5028834;28;20046;-59
2023/12/27 02:16:27;;;;;;;5.22;3.70;;;;;;;20.33;43.29;101886.91;5032385;28;20057;-59
2023/12/27 02:18:55;;;;;;;4.95;3.33;;;;;;;20.33;43.31;101881.53;5031861;28;20057;-58
2023/12/27 02:21:24;;;;;;;4.60;3.05;;;;;;;20.32;43.19;101888.75;5030777;28;20057;-59
2023/12/27 02:23:53;;;;;;;4.68;3.38;;;;;;;20.32;43.25;101885.22;5028531;28;20050;-58
2023/12/27 02:26:20;;;;;;;4.43;3.33;;;;;;;20.33;43.21;101889.59;5033701;28;20053;-59
2023/12/27 02:28:47;;;;;;;4.57;2.83;;;;;;;20.32;43.23;101894.13;5032134;28;20053;-58
2023/12/27 02:31:15;;;;;;;6.47;3.17;;;;;;;20.32;43.31;101894.13;5029092;28;20049;-59
2023/12/27 02:33:44;;;;;;;4.40;3.47;;;;;;;20.32;43.32;101887.91;5027930;28;20050;-59
2023/12/27 02:36:11;;;;;;;4.47;3.05;;;;;;;20.32;43.16;101877.13;5034174;28;20041;-59
2023/12/27 02:38:39;;;;;;;5.10;3.33;;;;;;;20.31;43.13;101875.44;5030094;28;20057;-59
2023/12/27 02:41:06;;;;;;;5.15;3.22;;;;;;;20.31;43.23;101870.06;5028675;28;20503;-59
2023/12/27 02:43:33;;;;;;;3.72;2.92;;;;;;;20.31;43.28;101870.91;5028456;28;20046;-59
2023/12/27 02:46:01;;;;;;;4.88;2.90;;;;;;;20.30;43.15;101862.97;5032774;28;20163;-59
2023/12/27 02:48:29;;;;;;;4.80;3.38;;;;;;;20.31;43.29;101859.28;5024764;28;20057;-59
2023/12/27 02:50:56;;;;;;;4.22;2.75;;;;;;;20.30;43.16;101869.19;5029523;28;20049;-59
2023/12/27 02:53:25;;;;;;;4.93;3.00;;;;;;;20.31;43.18;101864.69;5028208;28;20098;-59
2023/12/27 02:55:53;;;;;;;4.68;3.22;;;;;;;20.29;43.29;101862.06;5033874;28;20045;-59
2023/12/27 02:58:20;;;;;;;4.72;3.17;;;;;;;20.30;43.12;101854.91;5031309;28;20045;-58
2023/12/27 03:00:49;;;;;;;4.22;3.08;;;;;;;20.30;43.17;101865.66;5029214;28;20048;-58
2023/12/27 03:03:16;;;;;;;4.50;2.90;;;;;;;20.29;43.20;101858.53;5027989;28;20060;-59
2023/12/27 03:05:44;;;;;;;5.10;3.05;;;;;;;20.29;43.36;101855.84;5035288;28;20045;-58
2023/12/27 03:08:11;;;;;;;3.40;2.65;;;;;;;20.28;43.31;101846.06;5025654;28;20495;-58
2023/12/27 03:10:38;;;;;;;4.38;2.70;;;;;;;20.28;43.14;101848.75;5029155;28;20049;-58
2023/12/27 03:13:07;;;;;;;4.28;3.10;;;;;;;20.28;43.25;101846.94;5027311;28;20053;-58
2023/12/27 03:15:34;;;;;;;5.18;2.95;;;;;;;20.27;43.11;101844.38;5033811;28;20049;-58
2023/12/27 03:18:02;;;;;;;4.45;2.72;;;;;;;20.27;43.27;101857.81;5025812;28;20507;-58
2023/12/27 03:20:29;;;;;;;3.97;2.80;;;;;;;20.26;43.15;101856.94;5028285;28;20514;-58
2023/12/27 03:22:57;;;;;;;4.30;2.60;;;;;;;20.26;43.08;101862.31;5027289;28;20412;-59
2023/12/27 03:25:24;;;;;;;4.32;2.58;;;;;;;20.27;43.25;101868.56;5033994;28;20041;-59
2023/12/27 03:27:51;;;;;;;4.97;2.90;;;;;;;20.26;43.29;101873.09;5024809;28;20054;-58
2023/12/27 03:30:19;;;;;;;4.32;2.60;;;;;;;20.26;43.31;101875.78;5026895;28;20411;-58
2023/12/27 03:32:46;;;;;;;5.07;3.03;;;;;;;20.27;43.12;101873.94;5026726;28;20057;-58
2023/12/27 03:35:14;;;;;;;3.55;2.75;;;;;;;20.27;43.21;101882.88;5032328;28;20049;-58
2023/12/27 03:37:41;;;;;;;3.80;2.50;;;;;;;20.27;43.15;101882.00;5023701;28;20491;-58
2023/12/27 03:40:09;;;;;;;3.72;2.60;;;;;;;20.27;43.05;101879.31;5028251;28;20049;-58
2023/12/27 03:42:36;;;;;;;3.67;2.53;;;;;;;20.27;43.10;101879.31;5026992;28;20056;-58
2023/12/27 03:45:04;;;;;;;4.95;2.80;;;;;;;20.27;43.23;101882.88;5033470;28;20053;-58
2023/12/27 03:47:32;;;;;;;3.75;2.90;;;;;;;20.27;43.15;101890.06;5030939;28;20412;-58
2023/12/27 03:50:02;;;;;;;4.80;2.83;;;;;;;20.28;43.20;101883.72;5027327;28;20049;-58
2023/12/27 03:52:29;;;;;;;4.00;2.60;;;;;;;20.27;43.15;101890.94;5026259;28;20054;-58
2023/12/27 03:54:57;;;;;;;4.15;2.55;;;;;;;20.27;43.22;101890.94;5034595;28;20049;-58
2023/12/27 03:57:25;;;;;;;5.47;2.50;;;;;;;20.27;43.12;101888.25;5030241;28;20060;-58
2023/12/27 03:59:52;;;;;;;3.63;2.55;;;;;;;20.28;43.24;101891.78;5027627;28;20049;-58
2023/12/27 04:02:19;;;;;;;3.97;2.50;;;;;;;20.26;43.15;101883.84;5026796;28;20046;-58
2023/12/27 04:04:47;;;;;;;4.68;2.83;;;;;;;20.26;43.24;101883.84;5031624;28;20053;-58
2023/12/27 04:07:14;;;;;;;3.60;2.83;;;;;;;20.27;43.24;101879.31;5030371;28;20050;-59
2023/12/27 04:09:42;;;;;;;3.80;2.45;;;;;;;20.26;43.17;101886.53;5027744;28;20060;-59
2023/12/27 04:12:09;;;;;;;6.13;2.78;;;;;;;20.26;43.31;101889.22;5025869;28;20054;-59
2023/12/27 04:14:37;;;;;;;4.22;2.33;;;;;;;20.27;43.23;101879.31;5033445;28;20049;-59
2023/12/27 04:17:04;;;;;;;4.10;2.20;;;;;;;20.25;43.08;101877.59;5030046;28;20077;-59
2023/12/27 04:19:32;;;;;;;4.18;2.63;;;;;;;20.26;43.04;101878.47;5027610;28;20045;-58
2023/12/27 04:21:59;;;;;;;4.95;2.63;;;;;;;20.25;43.38;101880.28;5025135;28;20058;-58
2023/12/27 04:24:27;;;;;;;4.35;2.55;;;;;;;20.25;43.32;101877.59;5032292;28;20052;-59
2023/12/27 04:26:54;;;;;;;5.43;3.20;;;;;;;20.27;43.23;101882.00;5029542;28;20045;-58
2023/12/27 04:29:22;;;;;;;4.50;2.38;;;;;;;20.27;43.26;101879.31;5026542;28;20061;-58
2023/12/27 04:31:49;;;;;;;3.45;2.45;;;;;;;20.25;43.29;101884.78;5024962;28;20066;-58
2023/12/27 04:34:17;;;;;;;3.83;2.60;;;;;;;20.25;43.18;101891.06;5031649;28;20048;-59
2023/12/27 04:36:45;;;;;;;2.95;2.22;;;;;;;20.24;43.15;101900.06;5029871;28;20040;-59
2023/12/27 04:39:12;;;;;;;3.42;2.10;;;;;;;20.25;43.25;101907.19;5026243;28;20056;-59
2023/12/27 04:41:40;;;;;;;3.85;2.40;;;;;;;20.24;43.19;101896.53;5026239;28;20053;-59
2023/12/27 04:44:07;;;;;;;4.30;2.40;;;;;;;20.25;43.48;101909.88;5033050;28;20052;-59
2023/12/27 04:46:36;;;;;;;4.40;2.78;;;;;;;20.24;43.46;101916.19;5029533;28;20042;-58
2023/12/27 04:49:09;;;;;;;3.90;2.50;;;;;;;20.24;43.57;101918.03;5026624;28;20058;-58
2023/12/27 04:51:37;;;;;;;3.45;2.47;;;;;;;20.23;43.30;101910.94;5027049;28;20500;-58
2023/12/27 04:54:04;;;;;;;3.92;2.58;;;;;;;20.24;43.50;101918.03;5030504;28;20053;-58
2023/12/27 04:56:32;;;;;;;4.28;2.55;;;;;;;20.22;43.38;101926.22;5028386;28;20056;-58
2023/12/27 04:59:00;;;;;;;4.88;2.53;;;;;;;20.23;43.39;101919.00;5030888;28;20061;-59
2023/12/27 05:01:30;;;;;;;3.90;2.03;;;;;;;20.24;43.35;101923.41;5028907;28;20527;-59
2023/12/27 05:03:57;;;;;;;3.22;1.90;;;;;;;20.23;43.28;101927.09;5034988;28;20079;-59
2023/12/27 05:06:25;;;;;;;4.35;2.65;;;;;;;20.22;43.58;101926.22;5032965;28;20052;-59
2023/12/27 05:08:52;;;;;;;4.85;3.05;;;;;;;20.22;43.50;101936.97;5029812;28;20057;-58
2023/12/27 05:11:21;;;;;;;4.03;2.03;;;;;;;20.24;43.55;101931.47;5030142;28;20054;-59
2023/12/27 05:13:49;;;;;;;3.75;2.10;;;;;;;20.22;43.66;101933.44;5034925;28;20041;-59
2023/12/27 05:16:18;;;;;;;4.43;2.45;;;;;;;20.21;43.58;101932.56;5032847;28;20046;-59
2023/12/27 05:18:45;;;;;;;4.57;2.30;;;;;;;20.21;43.45;101935.25;5029934;28;20054;-58
2023/12/27 05:21:17;;;;;;;5.55;2.35;;;;;;;20.20;43.37;101941.59;5032272;28;20046;-59
2023/12/27 05:23:44;;;;;;;3.75;2.05;;;;;;;20.22;43.53;101941.50;5033979;28;20049;-58
2023/12/27 05:26:12;;;;;;;4.53;2.30;;;;;;;20.21;43.35;101951.38;5031931;28;20411;-59
2023/12/27 05:28:40;;;;;;;3.40;1.83;;;;;;;20.23;43.63;101959.34;5029201;28;20050;-59
2023/12/27 05:31:07;;;;;;;3.95;2.63;;;;;;;20.24;43.61;101951.16;5033177;28;20045;-59
2023/12/27 05:33:35;;;;;;;3.58;2.38;;;;;;;20.23;43.51;101951.28;5033833;28;20053;-60
2023/12/27 05:36:03;;;;;;;3.70;1.92;;;;;;;20.23;43.46;101951.28;5031509;28;20045;-59
2023/12/27 05:38:30;;;;;;;5.22;2.83;;;;;;;20.24;43.49;101950.31;5029091;28;20412;-59
2023/12/27 05:40:58;;;;;;;3.42;2.00;;;;;;;20.24;43.60;101948.47;5033437;28;20048;-59
2023/12/27 05:43:25;;;;;;;3.72;2.03;;;;;;;20.26;43.75;101953.75;5033678;28;20053;-59
2023/12/27 05:45:52;;;;;;;3.33;2.08;;;;;;;20.27;43.76;101957.31;5031513;28;20052;-59
2023/12/27 05:48:20;;;;;;;4.13;1.90;;;;;;;20.27;43.78;101960.00;5029113;28;20049;-59
2023/12/27 05:50:47;;;;;;;3.42;1.85;;;;;;;20.26;43.54;101959.13;5034163;28;20050;-60
2023/12/27 05:53:15;;;;;;;4.63;1.90;;;;;;;20.26;43.66;101961.81;5034891;28;20046;-60
2023/12/27 05:55:42;;;;;;;4.60;2.03;;;;;;;20.25;43.56;101970.84;5034383;28;20075;-59
2023/12/27 05:58:09;;;;;;;2.55;2.00;;;;;;;20.25;43.69;101968.16;5028988;28;20045;-59
2023/12/27 06:00:37;;;;;;;4.30;2.28;;;;;;;20.25;43.56;101971.72;5033257;28;20042;-59
2023/12/27 06:03:05;;;;;;;3.40;2.40;;;;;;;20.26;43.52;101980.66;5033709;28;20064;-59
2023/12/27 06:05:33;;;;;;;3.25;2.20;;;;;;;20.24;43.51;101983.44;5031126;28;20050;-59
2023/12/27 06:08:00;;;;;;;2.95;2.10;;;;;;;20.24;43.20;101988.81;5028922;28;20038;-59
2023/12/27 06:10:28;;;;;;;3.97;2.17;;;;;;;20.25;43.34;101989.66;5032912;28;20050;-59
2023/12/27 06:12:55;;;;;;;3.90;1.98;;;;;;;20.25;43.36;101990.53;5032586;28;20062;-59
2023/12/27 06:15:22;;;;;;;4.43;2.20;;;;;;;20.24;43.40;102002.25;5031485;28;20053;-60
2023/12/27 06:17:50;;;;;;;3.55;1.88;;;;;;;20.24;43.39;102004.94;5028592;28;20045;-59
2023/12/27 06:20:17;;;;;;;3.03;1.77;;;;;;;20.24;43.37;102009.47;5033110;28;20050;-59
2023/12/27 06:22:45;;;;;;;3.65;2.22;;;;;;;20.24;43.50;102021.06;5033187;28;20044;-59
2023/12/27 06:25:12;;;;;;;4.40;2.15;;;;;;;20.25;43.46;102021.94;5030974;28;20046;-59
2023/12/27 06:27:40;;;;;;;2.80;1.67;;;;;;;20.24;43.44;102023.75;5028064;28;20057;-59
2023/12/27 06:30:08;;;;;;;2.78;1.80;;;;;;;20.27;43.45;102040.66;5032782;28;20050;-59
2023/12/27 06:32:36;;;;;;;3.63;2.13;;;;;;;20.26;43.36;102042.50;5032759;28;20045;-59
2023/12/27 06:35:04;;;;;;;3.92;2.00;;;;;;;20.25;43.34;102044.31;5030589;28;20072;-59
2023/12/27 06:37:31;;;;;;;3.20;2.05;;;;;;;20.25;43.29;102046.13;5028295;28;20579;-59
2023/12/27 06:39:58;;;;;;;5.13;2.15;;;;;;;20.24;43.30;102047.97;5032449;28;20050;-58
2023/12/27 06:42:26;;;;;;;4.32;2.50;;;;;;;20.24;43.26;102053.34;5032287;28;20456;-60
2023/12/27 06:44:54;;;;;;;4.13;2.47;;;;;;;20.24;43.48;102060.56;5030101;28;20049;-60
2023/12/27 06:47:21;;;;;;;4.10;2.28;;;;;;;20.21;43.46;102047.31;5027336;28;20046;-60
2023/12/27 06:49:48;;;;;;;2.72;1.95;;;;;;;20.22;43.40;102054.44;5031944;28;20053;-60
2023/12/27 06:52:16;;;;;;;4.57;2.08;;;;;;;20.22;43.27;102057.97;5031760;28;20476;-60
2023/12/27 06:54:43;;;;;;;3.45;2.17;;;;;;;20.20;43.22;102057.22;5029944;28;20053;-59
2023/12/27 06:57:11;;;;;;;3.40;1.95;;;;;;;20.20;43.34;102056.34;5027564;28;20046;-58
2023/12/27 06:59:38;;;;;;;4.32;1.92;;;;;;;20.20;43.48;102053.66;5032338;28;20065;-60
2023/12/27 07:02:07;;;;;;;3.30;1.80;;;;;;;20.20;43.48;102061.72;5031644;28;20045;-59
2023/12/27 07:04:35;;;;;;;4.30;2.03;;;;;;;20.20;43.39;102062.59;5030128;28;20056;-59
2023/12/27 07:07:03;;;;;;;3.83;1.92;;;;;;;20.20;43.44;102067.13;5027180;28;20050;-58
2023/12/27 07:09:31;;;;;;;3.28;1.92;;;;;;;20.20;43.44;102059.03;5026464;28;20054;-58
2023/12/27 07:11:58;;;;;;;3.10;1.95;;;;;;;20.18;43.46;102064.53;5031256;28;20053;-58
2023/12/27 07:14:26;;;;;;;3.20;1.90;;;;;;;20.18;43.50;102069.06;5028237;28;20068;-58
2023/12/27 07:16:53;;;;;;;3.42;2.03;;;;;;;20.19;43.33;102081.53;5027569;28;20050;-59
2023/12/27 07:19:21;;;;;;;3.28;2.10;;;;;;;20.18;43.17;102077.97;5033742;28;20057;-59
2023/12/27 07:21:48;;;;;;;3.10;2.15;;;;;;;20.19;43.27;102079.69;5031311;28;20044;-59
2023/12/27 07:24:15;;;;;;;3.00;1.77;;;;;;;20.19;43.11;102079.69;5029171;28;20045;-59
2023/12/27 07:26:43;;;;;;;3.10;2.05;;;;;;;20.20;43.22;102081.41;5027248;28;20046;-59
2023/12/27 07:29:11;;;;;;;3.28;2.13;;;;;;;20.20;43.24;102088.63;5032042;28;20061;-58
2023/12/27 07:31:38;;;;;;;4.85;1.88;;;;;;;20.18;43.29;102083.38;5031294;28;20440;-58
2023/12/27 07:34:05;;;;;;;3.08;1.83;;;;;;;20.20;43.35;102094.00;5029044;28;20049;-58
2023/12/27 07:36:33;;;;;;;3.30;2.08;;;;;;;20.21;43.31;102095.72;5027232;28;20109;-58
2023/12/27 07:39:00;;;;;;;5.47;2.13;;;;;;;20.21;43.16;102101.09;5032054;28;20145;-58
2023/12/27 07:41:28;;;;;;;5.70;2.65;;;;;;;20.21;43.23;102112.69;5032270;28;20068;-58
2023/12/27 07:43:55;;;;;;;5.60;2.25;;;;;;;20.22;43.23;102113.59;5027694;28;20052;-58
2023/12/27 07:46:23;;;;;;;3.42;1.75;;;;;;;20.21;43.10;102107.31;5026978;28;20408;-59
2023/12/27 07:48:51;;;;;;;3.38;2.03;;;;;;;20.21;43.07;102112.69;5031775;28;20052;-59
2023/12/27 07:51:18;;;;;;;3.72;2.10;;;;;;;20.21;43.35;102120.78;5031006;28;20049;-59
2023/12/27 07:53:50;;;;;;;3.55;1.90;;;;;;;20.21;43.04;102120.78;5028938;28;20049;-59
2023/12/27 07:56:18;;;;;;;3.38;1.80;;;;;;;20.20;43.21;102127.13;5027069;28;20046;-59
2023/12/27 07:58:47;;;;;;;4.40;1.80;;;;;;;20.22;43.43;102135.97;5032921;28;20064;-58
2023/12/27 08:01:15;;;;;;;6.55;1.98;;;;;;;20.22;43.61;102133.28;5024726;28;20411;-58
2023/12/27 08:03:44;;;;;;;4.65;2.33;;;;;;;20.23;43.53;102148.44;5027508;28;20045;-58
2023/12/27 08:06:13;;;;;;;3.33;1.60;;;;;;;20.23;43.34;102148.44;5026517;28;20042;-59
2023/12/27 08:08:40;;;;;;;4.00;2.03;;;;;;;20.23;43.19;102148.44;5033091;28;20048;-59
2023/12/27 08:11:08;;;;;;;4.05;2.35;;;;;;;20.23;43.24;102155.63;5030399;28;20049;-59
2023/12/27 08:13:36;;;;;;;3.30;1.75;;;;;;;20.22;43.09;102154.78;5027150;28;20404;-59
2023/12/27 08:16:05;;;;;;;3.40;1.55;;;;;;;20.22;43.11;102157.47;5031045;28;20048;-59
2023/12/27 08:18:33;;;;;;;3.75;1.75;;;;;;;20.22;43.27;102156.63;5031505;28;20049;-59
2023/12/27 08:21:00;;;;;;;2.80;1.70;;;;;;;20.22;43.20;102168.22;5029524;28;20046;-59
2023/12/27 08:23:28;;;;;;;2.70;1.80;;;;;;;20.22;43.02;102172.75;5024346;28;20050;-59
2023/12/27 08:25:55;;;;;;;3.20;1.50;;;;;;;20.22;43.03;102173.59;5026275;28;20052;-58
2023/12/27 08:28:23;;;;;;;2.50;1.23;;;;;;;20.22;43.04;102178.13;5032194;28;20049;-59
2023/12/27 08:30:53;;;;;;;3.83;1.90;;;;;;;20.21;43.04;102182.63;5029626;28;20056;-59
2023/12/27 08:33:20;;;;;;;3.75;2.08;;;;;;;20.21;43.07;102184.44;5026131;28;20050;-59
2023/12/27 08:35:48;;;;;;;2.35;1.55;;;;;;;20.19;43.14;102181.88;5026354;28;20046;-59
2023/12/27 08:38:15;;;;;;;3.78;1.70;;;;;;;20.20;43.13;102191.66;5032094;28;20053;-60
2023/12/27 08:40:43;;;;;;;4.80;2.20;;;;;;;20.20;43.00;102194.34;5029246;28;20052;-59
2023/12/27 08:43:10;;;;;;;2.90;1.92;;;;;;;20.21;43.06;102197.91;5025734;28;20046;-60
2023/12/27 08:45:38;;;;;;;3.03;1.80;;;;;;;20.20;43.20;102198.88;5026516;28;20527;-60
2023/12/27 08:48:06;;;;;;;3.25;2.17;;;;;;;20.18;43.19;102201.66;5031661;28;20048;-59
2023/12/27 08:50:34;;;;;;;4.30;2.20;;;;;;;20.18;43.11;102196.28;5029204;28;20052;-60
2023/12/27 08:53:04;;;;;;;4.07;1.80;;;;;;;20.19;43.18;102202.53;5026128;28;20046;-59
2023/12/27 08:55:31;;;;;;;3.63;1.77;;;;;;;20.19;43.23;102211.47;5028105;28;20060;-59
2023/12/27 08:57:59;;;;;;;3.85;2.25;;;;;;;20.19;43.31;102215.97;5041112;28;20045;-59
2023/12/27 09:00:27;;;;;;;5.57;2.17;;;;;;;20.19;43.00;102210.59;5024406;28;20053;-59
2023/12/27 09:02:54;;;;;;;4.57;2.15;;;;;;;20.18;42.94;102212.44;5024355;28;20042;-59
2023/12/27 09:05:22;;;;;;;3.72;2.00;;;;;;;20.19;43.16;102219.53;5034034;28;20411;-59
2023/12/27 09:07:49;;;;;;;3.65;1.75;;;;;;;20.20;43.41;102217.69;5021884;28;20041;-60
2023/12/27 09:10:17;;;;;;;3.72;2.25;;;;;;;20.19;43.30;102219.53;5022148;28;20147;-60
2023/12/27 09:12:44;;;;;;;4.03;2.30;;;;;;;20.20;43.20;102231.13;5021056;28;20063;-61
2023/12/27 09:15:14;;;;;;;4.03;2.30;;;;;;;20.19;43.35;102238.34;5031692;28;20064;-59
2023/12/27 09:17:41;;;;;;;4.53;2.05;;;;;;;20.18;43.35;102239.31;5026258;28;20076;-59
2023/12/27 09:20:09;;;;;;;4.20;2.17;;;;;;;20.18;43.19;102242.00;5020158;28;20515;-57
2023/12/27 09:22:36;;;;;;;3.75;2.40;;;;;;;20.19;43.38;102238.34;5021082;28;20061;-56
2023/12/27 09:25:05;;;;;;;3.90;2.53;;;;;;;20.20;43.13;102244.56;5023774;28;20046;-56
2023/12/27 09:27:33;;;;;;;3.33;2.30;;;;;;;20.21;43.32;102247.16;5025832;28;20503;-55
2023/12/27 09:30:00;;;;;;;4.00;2.03;;;;;;;20.19;43.21;102243.72;5021239;28;20042;-57
2023/12/27 09:32:28;;;;;;;4.10;1.90;;;;;;;20.21;43.32;102251.69;5021713;28;20050;-63
2023/12/27 09:34:55;;;;;;;3.17;1.85;;;;;;;20.20;43.22;102252.66;5023837;28;20053;-57
2023/12/27 09:37:23;;;;;;;3.38;1.90;;;;;;;20.21;43.27;102252.53;5025947;28;20373;-56
2023/12/27 09:39:50;;;;;;;3.08;1.90;;;;;;;20.21;43.19;102252.53;5020947;28;20050;-60
2023/12/27 09:42:17;;;;;;;4.22;1.70;;;;;;;20.23;43.23;102250.63;5020555;28;20516;-56
2023/12/27 09:44:48;;;;;;;3.78;2.25;;;;;;;20.26;43.52;102252.25;5022164;28;20046;-56
2023/12/27 09:47:17;;;;;;;7.20;2.47;;;;;;;20.27;43.54;102251.28;5024561;28;20048;-55
2023/12/27 09:49:45;;;;;;;3.90;2.08;;;;;;;20.28;43.63;102258.38;5024284;28;20041;-59
2023/12/27 09:52:14;;;;;;;4.88;2.42;;;;;;;20.28;43.75;102255.69;5023476;28;20046;-61
2023/12/27 09:54:41;;;;;;;4.55;1.83;;;;;;;20.29;43.66;102261.91;5029171;28;20056;-61
2023/12/27 09:57:09;;;;;;;4.55;2.47;;;;;;;20.30;43.69;102250.22;5027893;28;20052;-60
2023/12/27 09:59:40;;;;;;;5.95;2.08;;;;;;;20.30;43.67;102255.59;5034212;28;20053;-57
2023/12/27 10:02:17;;;;;;;3.55;2.10;;;;;;;20.31;43.79;102251.94;5024101;28;20045;-57
2023/12/27 10:05:27;;;;;;;5.82;2.58;;;;;;;20.31;43.80;102247.41;5027303;28;20049;-61
2023/12/27 10:08:04;;;;;;;3.28;2.10;;;;;;;20.32;43.79;102253.66;5021558;28;20057;-55
2023/12/27 10:10:34;;;;;;;5.40;2.85;;;;;;;20.33;43.70;102244.59;5028596;28;20598;-58
2023/12/27 10:13:04;;;;;;;4.35;2.10;;;;;;;20.33;44.20;102244.59;5023220;28;20961;-58
2023/12/27 10:15:31;;;;;;;4.18;1.92;;;;;;;20.31;43.83;102239.34;5023625;28;20045;-56
2023/12/27 10:17:59;;;;;;;4.28;2.83;;;;;;;20.32;43.26;102232.13;5023476;28;20431;-57
2023/12/27 10:20:38;;;;;;;5.22;3.00;;;;;;;20.30;43.11;102237.63;5024325;28;20041;-57
2023/12/27 10:23:06;;;;;;;5.95;2.90;;;;;;;20.28;42.72;102225.25;5023712;28;20050;-57
2023/12/27 10:25:35;;;;;;;6.68;3.17;;;;;;;20.27;42.51;102228.91;5022955;28;20050;-54
2023/12/27 10:28:03;;;;;;;4.45;3.00;;;;;;;20.25;42.05;102232.56;5026584;28;20061;-60
2023/12/27 10:30:30;;;;;;;8.27;3.67;;;;;;;20.22;41.95;102232.75;5022384;28;20427;-62
2023/12/27 10:32:59;;;;;;;5.13;2.70;;;;;;;20.22;42.18;102229.22;5023476;28;20064;-60
2023/12/27 10:35:28;;;;;;;5.38;3.60;;;;;;;20.13;42.09;102227.97;5022830;28;20049;-58
2023/12/27 10:38:05;;;;;;;7.30;4.55;;;;;;;19.99;41.72;102220.84;5027366;28;20042;-56
2023/12/27 10:40:35;;;;;;;8.13;4.00;;;;;;;19.94;41.73;102219.44;5023275;28;20054;-56
2023/12/27 10:43:03;;;;;;;4.93;3.25;;;;;;;19.96;42.14;102222.88;5022404;28;20526;-54
2023/12/27 10:45:30;;;;;;;6.60;3.08;;;;;;;19.97;42.48;102214.75;5023003;28;20432;-61
2023/12/27 10:48:04;;;;;;;5.38;3.20;;;;;;;20.05;42.88;102218.72;5034910;28;20048;-58
2023/12/27 10:50:33;;;;;;;4.38;2.53;;;;;;;20.13;42.66;102219.06;5023045;28;20057;-62
2023/12/27 10:53:08;;;;;;;4.28;2.85;;;;;;;20.18;42.80;102217.81;5021933;28;20385;-63
2023/12/27 10:55:37;;;;;;;5.30;2.65;;;;;;;20.24;43.09;102220.06;5026784;28;20049;-62
2023/12/27 10:58:18;;;;;;;4.22;2.67;;;;;;;20.29;42.92;102216.19;5026534;28;20049;-60
2023/12/27 11:00:47;;;;;;;4.38;2.65;;;;;;;20.29;43.02;102214.38;5021974;28;20491;-59
2023/12/27 11:03:16;;;;;;;4.45;3.45;;;;;;;20.29;42.91;102214.38;5022727;28;20049;-59
2023/12/27 11:05:44;;;;;;;5.70;2.88;;;;;;;20.29;43.05;102210.81;5029675;28;20055;-59
2023/12/27 11:08:14;;;;;;;4.20;2.40;;;;;;;20.30;43.13;102212.56;5022218;28;20038;-59
2023/12/27 11:10:44;;;;;;;5.53;2.75;;;;;;;20.29;43.12;102211.69;5022072;28;20034;-59
2023/12/27 11:13:16;;;;;;;4.63;2.60;;;;;;;20.29;43.14;102206.31;5025692;28;20050;-59
2023/12/27 11:15:45;;;;;;;4.47;2.72;;;;;;;20.30;43.35;102199.97;5027150;28;20052;-58
2023/12/27 11:18:13;;;;;;;7.07;2.88;;;;;;;20.31;43.42;102199.00;5022886;28;20045;-59
2023/12/27 11:20:41;;;;;;;4.88;2.50;;;;;;;20.31;43.39;102200.84;5021805;28;20038;-59
2023/12/27 11:23:09;;;;;;;4.95;2.90;;;;;;;20.30;43.21;102199.13;5049914;28;20049;-59
2023/12/27 11:25:37;;;;;;;4.30;2.53;;;;;;;20.29;43.35;102195.53;5026251;28;20047;-59
2023/12/27 11:28:04;;;;;;;4.47;2.40;;;;;;;20.29;43.35;102197.38;5022768;28;20069;-61